TimeCDT,TemperatureF,Dew PointF,Humidity,Sea Level PressureIn,VisibilityMPH,Wind Direction,Wind SpeedMPH,Gust SpeedMPH,PrecipitationIn,Events,Conditions,WindDirDegrees,DateUTC
12:52 AM,55.9,33.1,42,29.87,10.0,South,11.5,-,N/A,,Clear,170,2012-10-03 05:52:00
1:52 AM,54.0,36.0,51,29.86,10.0,South,13.8,-,N/A,,Clear,190,2012-10-03 06:52:00
2:52 AM,54.0,37.9,55,29.86,10.0,South,12.7,-,N/A,,Clear,190,2012-10-03 07:52:00
3:52 AM,53.1,39.0,59,29.84,10.0,South,12.7,-,N/A,,Clear,180,2012-10-03 08:52:00
4:52 AM,52.0,39.0,61,29.84,10.0,South,11.5,-,N/A,,Clear,180,2012-10-03 09:52:00
5:52 AM,50.0,39.9,68,29.84,10.0,South,11.5,-,N/A,,Clear,180,2012-10-03 10:52:00
6:52 AM,48.9,39.9,71,29.86,10.0,South,9.2,-,N/A,,Clear,190,2012-10-03 11:52:00
7:52 AM,48.0,39.9,74,29.86,10.0,South,11.5,-,N/A,,Clear,190,2012-10-03 12:52:00
8:52 AM,53.1,41.0,64,29.86,10.0,South,12.7,-,N/A,,Clear,180,2012-10-03 13:52:00
9:52 AM,62.1,44.1,52,29.85,10.0,South,17.3,24.2,N/A,,Clear,190,2012-10-03 14:52:00
10:52 AM,66.9,46.0,47,29.84,10.0,South,15.0,-,N/A,,Clear,190,2012-10-03 15:52:00
11:52 AM,72.0,48.0,43,29.82,10.0,South,15.0,-,N/A,,Clear,190,2012-10-03 16:52:00
12:52 PM,75.0,48.0,38,29.79,10.0,SSW,16.1,21.9,N/A,,Clear,200,2012-10-03 17:52:00
1:52 PM,80.1,50.0,35,29.76,10.0,South,17.3,-,N/A,,Clear,190,2012-10-03 18:52:00
2:52 PM,82.0,48.9,31,29.75,10.0,SSE,20.7,26.5,N/A,,Clear,160,2012-10-03 19:52:00
3:52 PM,84.0,48.0,28,29.74,10.0,South,18.4,25.3,N/A,,Clear,170,2012-10-03 20:52:00
4:52 PM,82.9,48.0,29,29.74,10.0,South,20.7,27.6,N/A,,Clear,190,2012-10-03 21:52:00
5:52 PM,82.0,48.0,30,29.75,10.0,South,17.3,26.5,N/A,,Clear,180,2012-10-03 22:52:00
6:52 PM,78.1,48.0,35,29.78,10.0,South,13.8,-,N/A,,Clear,170,2012-10-03 23:52:00
7:52 PM,73.0,48.9,42,29.80,10.0,SSE,12.7,-,N/A,,Clear,160,2012-10-04 00:52:00
8:52 PM,71.1,48.9,45,29.81,10.0,South,17.3,-,N/A,,Clear,180,2012-10-04 01:52:00
9:52 PM,68.0,48.2,49,29.88,10.0,South,17.3,-,N/A,,Clear,170,2012-10-04 02:52:00
10:52 PM,66.9,50.0,54,29.83,10.0,South,15.0,-,N/A,,Clear,170,2012-10-04 03:52:00
11:52 PM,64.0,50.0,60,29.86,10.0,SSE,12.7,-,N/A,,Clear,160,2012-10-04 04:52:00